Time;durP1;ratioP1;P1;durP2;ratioP2;P2;SDS_P1;SDS_P2;PMS_P1;PMS_P2;Temp;Humidity;BMP_temperature;BMP_pressure;BME280_temperature;BME280_humidity;BME280_pressure;Samples;Min_cycle;Max_cycle;Signal;HPM_P1;HPM_P2
2022/09/20 00:00:36;;;;;;;;;;;;;;;;;;5102031;28;869;-77
2022/09/20 00:03:02;;;;;;;;;;;;;;;;;;5101843;28;1063;-77
2022/09/20 00:05:27;;;;;;;;;;;;;;;;;;5101291;28;941;-77
2022/09/20 00:07:52;;;;;;;;;;;;;;;;;;5101109;28;1968;-77
2022/09/20 00:10:17;;;;;;;;;;;;;;;;;;5101832;28;908;-77
2022/09/20 00:12:43;;;;;;;;;;;;;;;;;;5101713;28;802;-77
2022/09/20 00:15:08;;;;;;;;;;;;;;;;;;5101131;28;960;-77
2022/09/20 00:17:33;;;;;;;;;;;;;;;;;;5101559;28;1080;-77
2022/09/20 00:19:58;;;;;;;;;;;;;;;;;;5101855;28;1162;-77
2022/09/20 00:22:23;;;;;;;;;;;;;;;;;;5101614;28;988;-77
2022/09/20 00:24:48;;;;;;;;;;;;;;;;;;5101017;28;798;-77
2022/09/20 00:27:14;;;;;;;;;;;;;;;;;;5101441;28;1965;-77
2022/09/20 00:29:39;;;;;;;;;;;;;;;;;;5101449;28;1148;-77
2022/09/20 00:32:04;;;;;;;;;;;;;;;;;;5101499;28;826;-77
2022/09/20 00:37:14;;;;;;;;;;;;;;;;;;5101433;28;680;-77
2022/09/20 00:39:39;;;;;;;;;;;;;;;;;;5101187;28;1257;-77
2022/09/20 00:42:04;;;;;;;;;;;;;;;;;;5101381;28;1020;-77
2022/09/20 00:44:41;;;;;;;;;;;;;;;;;;5100555;28;1051;-77
2022/09/20 00:47:08;;;;;;;;;;;;;;;;;;5101524;28;1959;-77
2022/09/20 00:49:35;;;;;;;;;;;;;;;;;;5101066;28;1159;-77
2022/09/20 00:52:01;;;;;;;;;;;;;;;;;;5101264;28;885;-77
2022/09/20 00:54:28;;;;;;;;;;;;;;;;;;5100630;28;811;-77
2022/09/20 00:56:53;;;;;;;;;;;;;;;;;;5101218;28;988;-77
2022/09/20 00:59:24;;;;;;;;;;;;;;;;;;5100985;28;1159;-77
2022/09/20 01:01:54;;;;;;;;;;;;;;;;;;5101283;28;834;-77
2022/09/20 01:04:21;;;;;;;;;;;;;;;;;;5101100;28;800;-76
2022/09/20 01:06:48;;;;;;;;;;;;;;;;;;5100754;28;1897;-77
2022/09/20 01:09:13;;;;;;;;;;;;;;;;;;5100816;28;1168;-77
2022/09/20 01:11:39;;;;;;;;;;;;;;;;;;5101062;28;906;-77
2022/09/20 01:14:04;;;;;;;;;;;;;;;;;;5100868;28;826;-76
2022/09/20 01:16:31;;;;;;;;;;;;;;;;;;5100352;28;1044;-77
2022/09/20 01:18:57;;;;;;;;;;;;;;;;;;5101537;28;1230;-76
2022/09/20 01:21:23;;;;;;;;;;;;;;;;;;5104537;28;972;-77
2022/09/20 01:23:59;;;;;;;;;;;;;;;;;;5104316;28;1048;-76
2022/09/20 01:26:43;;;;;;;;;;;;;;;;;;5103749;28;1957;-77
2022/09/20 01:29:11;;;;;;;;;;;;;;;;;;5093341;28;1163;-77
2022/09/20 01:31:42;;;;;;;;;;;;;;;;;;5084073;28;885;-77
2022/09/20 01:34:13;;;;;;;;;;;;;;;;;;5084020;28;798;-77
2022/09/20 01:36:41;;;;;;;;;;;;;;;;;;5082225;28;1538;-77
2022/09/20 01:39:29;;;;;;;;;;;;;;;;;;5083698;28;1218;-77
2022/09/20 01:42:01;;;;;;;;;;;;;;;;;;5083830;28;2172;-77
2022/09/20 01:44:29;;;;;;;;;;;;;;;;;;5083357;28;814;-77
2022/09/20 01:47:12;;;;;;;;;;;;;;;;;;5083492;28;1905;-77
2022/09/20 01:49:53;;;;;;;;;;;;;;;;;;5083604;28;1139;-77
2022/09/20 01:52:36;;;;;;;;;;;;;;;;;;5083765;28;1013;-76
2022/09/20 01:55:26;;;;;;;;;;;;;;;;;;5082935;28;1075;-77
2022/09/20 01:58:06;;;;;;;;;;;;;;;;;;5083672;28;1180;-76
2022/09/20 02:00:37;;;;;;;;;;;;;;;;;;5083466;28;845;-76
2022/09/20 02:03:03;;;;;;;;;;;;;;;;;;5083633;28;894;-77
2022/09/20 02:05:28;;;;;;;;;;;;;;;;;;5082953;28;803;-76
2022/09/20 02:08:03;;;;;;;;;;;;;;;;;;5083395;28;1905;-76
2022/09/20 02:10:44;;;;;;;;;;;;;;;;;;5083296;28;885;-76
2022/09/20 02:13:26;;;;;;;;;;;;;;;;;;5083446;28;964;-76
2022/09/20 02:16:03;;;;;;;;;;;;;;;;;;5083015;28;850;-76
2022/09/20 02:18:31;;;;;;;;;;;;;;;;;;5083285;28;1297;-76
2022/09/20 02:21:08;;;;;;;;;;;;;;;;;;5083255;28;822;-77
2022/09/20 02:23:34;;;;;;;;;;;;;;;;;;5083253;28;929;-76
2022/09/20 02:26:14;;;;;;;;;;;;;;;;;;5082406;28;1890;-77
2022/09/20 02:28:52;;;;;;;;;;;;;;;;;;5083119;28;1164;-77
2022/09/20 02:31:23;;;;;;;;;;;;;;;;;;5083276;28;802;-77
2022/09/20 02:33:48;;;;;;;;;;;;;;;;;;5083391;28;869;-77
2022/09/20 02:36:26;;;;;;;;;;;;;;;;;;5082226;28;953;-77
2022/09/20 02:39:01;;;;;;;;;;;;;;;;;;5082919;28;1163;-77
2022/09/20 02:41:45;;;;;;;;;;;;;;;;;;5082996;28;835;-77
2022/09/20 02:44:26;;;;;;;;;;;;;;;;;;5082967;28;1064;-77
2022/09/20 02:47:10;;;;;;;;;;;;;;;;;;5082474;28;1905;-77
2022/09/20 02:49:43;;;;;;;;;;;;;;;;;;5082830;28;1195;-76
2022/09/20 02:52:20;;;;;;;;;;;;;;;;;;5082756;28;846;-77
2022/09/20 02:54:53;;;;;;;;;;;;;;;;;;5081007;28;799;-77
2022/09/20 02:57:25;;;;;;;;;;;;;;;;;;5082655;28;972;-77
2022/09/20 03:00:05;;;;;;;;;;;;;;;;;;5082525;28;1162;-77
2022/09/20 03:02:36;;;;;;;;;;;;;;;;;;5082570;28;1111;-77
2022/09/20 03:05:20;;;;;;;;;;;;;;;;;;5082076;28;1005;-76
2022/09/20 03:08:04;;;;;;;;;;;;;;;;;;5082322;28;1947;-76
2022/09/20 03:10:48;;;;;;;;;;;;;;;;;;5082555;28;839;-76
2022/09/20 03:13:28;;;;;;;;;;;;;;;;;;5082534;28;870;-77
2022/09/20 03:15:53;;;;;;;;;;;;;;;;;;5081503;28;1048;-77
2022/09/20 03:18:25;;;;;;;;;;;;;;;;;;5082384;28;1231;-76
2022/09/20 03:20:54;;;;;;;;;;;;;;;;;;5082258;28;839;-77
2022/09/20 03:23:37;;;;;;;;;;;;;;;;;;5082303;28;889;-77
2022/09/20 03:26:19;;;;;;;;;;;;;;;;;;5081443;28;1907;-77
2022/09/20 03:28:54;;;;;;;;;;;;;;;;;;5081042;28;1243;-77
2022/09/20 03:31:27;;;;;;;;;;;;;;;;;;5082148;28;929;-77
2022/09/20 03:33:53;;;;;;;;;;;;;;;;;;5082305;28;1074;-77
2022/09/20 03:36:18;;;;;;;;;;;;;;;;;;5081333;28;889;-76
2022/09/20 03:38:55;;;;;;;;;;;;;;;;;;5081960;28;1258;-77
2022/09/20 03:41:39;;;;;;;;;;;;;;;;;;5081263;28;854;-77
2022/09/20 03:44:09;;;;;;;;;;;;;;;;;;5081963;28;918;-77
2022/09/20 03:46:37;;;;;;;;;;;;;;;;;;5081155;28;1985;-77
2022/09/20 03:49:21;;;;;;;;;;;;;;;;;;5081778;28;1179;-76
2022/09/20 03:51:56;;;;;;;;;;;;;;;;;;5081792;28;826;-76
2022/09/20 03:54:40;;;;;;;;;;;;;;;;;;5081711;28;795;-76
2022/09/20 03:57:11;;;;;;;;;;;;;;;;;;5081672;28;972;-76
2022/09/20 03:59:36;;;;;;;;;;;;;;;;;;5081539;28;1307;-77
2022/09/20 04:02:20;;;;;;;;;;;;;;;;;;5081547;28;997;-76
2022/09/20 04:04:48;;;;;;;;;;;;;;;;;;5081304;28;1021;-76
2022/09/20 04:07:18;;;;;;;;;;;;;;;;;;5081436;28;1905;-76
2022/09/20 04:10:02;;;;;;;;;;;;;;;;;;5081558;28;1191;-76
2022/09/20 04:12:46;;;;;;;;;;;;;;;;;;5081450;28;846;-76
2022/09/20 04:15:11;;;;;;;;;;;;;;;;;;5080954;28;984;-76
2022/09/20 04:17:56;;;;;;;;;;;;;;;;;;5081364;28;996;-76
2022/09/20 04:20:22;;;;;;;;;;;;;;;;;;5080730;28;1197;-76
2022/09/20 04:22:50;;;;;;;;;;;;;;;;;;5081464;28;827;-76
2022/09/20 04:25:20;;;;;;;;;;;;;;;;;;5080925;28;823;-76
2022/09/20 04:28:00;;;;;;;;;;;;;;;;;;5081133;28;2022;-76
2022/09/20 04:30:29;;;;;;;;;;;;;;;;;;5081279;28;1162;-76
2022/09/20 04:32:54;;;;;;;;;;;;;;;;;;5079736;28;1577;-76
2022/09/20 04:38:21;;;;;;;;;;;;;;;;;;5081070;28;1269;-76
2022/09/20 04:41:05;;;;;;;;;;;;;;;;;;5081208;28;838;-76
2022/09/20 04:43:51;;;;;;;;;;;;;;;;;;5081030;28;941;-76
2022/09/20 04:46:37;;;;;;;;;;;;;;;;;;5080598;28;1969;-76
2022/09/20 04:49:34;;;;;;;;;;;;;;;;;;5081050;28;1168;-76
2022/09/20 04:52:08;;;;;;;;;;;;;;;;;;5036025;28;1181;-76
2022/09/20 04:54:48;;;;;;;;;;;;;;;;;;5081904;28;1052;-76
2022/09/20 04:57:28;;;;;;;;;;;;;;;;;;5084723;28;1064;-76
2022/09/20 05:00:02;;;;;;;;;;;;;;;;;;5084265;28;1195;-76
2022/09/20 05:02:46;;;;;;;;;;;;;;;;;;5084579;28;787;-76
2022/09/20 05:05:14;;;;;;;;;;;;;;;;;;5083940;28;740;-76
2022/09/20 05:07:54;;;;;;;;;;;;;;;;;;5084423;28;1894;-76
2022/09/20 05:10:32;;;;;;;;;;;;;;;;;;5084216;28;850;-76
2022/09/20 05:13:06;;;;;;;;;;;;;;;;;;5084714;28;795;-76
2022/09/20 05:15:35;;;;;;;;;;;;;;;;;;5083741;28;845;-73
2022/09/20 05:18:03;;;;;;;;;;;;;;;;;;5084325;28;1188;-75
2022/09/20 05:20:28;;;;;;;;;;;;;;;;;;5084141;28;866;-75
2022/09/20 05:22:53;;;;;;;;;;;;;;;;;;5084153;28;916;-75
2022/09/20 05:25:38;;;;;;;;;;;;;;;;;;5083464;28;909;-75
2022/09/20 05:28:07;;;;;;;;;;;;;;;;;;5084060;28;1914;-75
2022/09/20 05:30:36;;;;;;;;;;;;;;;;;;5084310;28;794;-75
2022/09/20 05:33:11;;;;;;;;;;;;;;;;;;5084190;28;841;-75
2022/09/20 05:35:53;;;;;;;;;;;;;;;;;;5083360;28;842;-75
2022/09/20 05:38:21;;;;;;;;;;;;;;;;;;5084052;28;1301;-75
2022/09/20 05:40:52;;;;;;;;;;;;;;;;;;5083659;28;1115;-75
2022/09/20 05:43:25;;;;;;;;;;;;;;;;;;5083946;28;806;-75
2022/09/20 05:45:50;;;;;;;;;;;;;;;;;;5082831;28;1957;-75
2022/09/20 05:48:19;;;;;;;;;;;;;;;;;;5083874;28;1271;-75
2022/09/20 05:50:56;;;;;;;;;;;;;;;;;;5083451;28;988;-75
2022/09/20 05:53:27;;;;;;;;;;;;;;;;;;5083784;28;881;-75
2022/09/20 05:56:12;;;;;;;;;;;;;;;;;;5083058;28;882;-75
2022/09/20 06:01:22;;;;;;;;;;;;;;;;;;5059695;28;1930;-64
2022/09/20 06:03:53;;;;;;;;;;;;;;;;;;5063049;28;969;-64
2022/09/20 06:06:20;;;;;;;;;;;;;;;;;;5061632;28;1909;-64
2022/09/20 06:08:48;;;;;;;;;;;;;;;;;;5063255;28;989;-65
2022/09/20 06:11:32;;;;;;;;;;;;;;;;;;5042756;28;878;-66
2022/09/20 06:14:15;;;;;;;;;;;;;;;;;;5042914;28;1007;-66
2022/09/20 06:16:59;;;;;;;;;;;;;;;;;;5042504;28;958;-66
2022/09/20 06:19:45;;;;;;;;;;;;;;;;;;5042597;28;1168;-66
2022/09/20 06:22:15;;;;;;;;;;;;;;;;;;5042930;28;878;-66
2022/09/20 06:24:59;;;;;;;;;;;;;;;;;;5042031;28;811;-66
2022/09/20 06:27:27;;;;;;;;;;;;;;;;;;5042832;28;1894;-66
2022/09/20 06:29:55;;;;;;;;;;;;;;;;;;5042456;28;1239;-66
2022/09/20 06:32:21;;;;;;;;;;;;;;;;;;5042464;28;1013;-66
2022/09/20 06:34:46;;;;;;;;;;;;;;;;;;5041714;28;875;-66
2022/09/20 06:43:04;;;;;;;;;;;;;;;;;;5042504;28;609;-66
2022/09/20 06:45:30;;;;;;;;;;;;;;;;;;5041755;28;775;-66
2022/09/20 06:47:56;;;;;;;;;;;;;;;;;;5042159;28;1898;-66
2022/09/20 06:50:21;;;;;;;;;;;;;;;;;;5042172;28;1157;-66
2022/09/20 06:52:48;;;;;;;;;;;;;;;;;;5042307;28;822;-66
2022/09/20 06:55:19;;;;;;;;;;;;;;;;;;5041588;28;877;-66
2022/09/20 06:57:44;;;;;;;;;;;;;;;;;;5042333;28;787;-66
2022/09/20 07:00:14;;;;;;;;;;;;;;;;;;5042063;28;1154;-66
2022/09/20 07:02:39;;;;;;;;;;;;;;;;;;5042002;28;795;-66
2022/09/20 07:05:06;;;;;;;;;;;;;;;;;;5041616;28;973;-66
2022/09/20 07:07:31;;;;;;;;;;;;;;;;;;5041899;28;1961;-66
2022/09/20 07:09:57;;;;;;;;;;;;;;;;;;5040449;28;1156;-66
2022/09/20 07:12:23;;;;;;;;;;;;;;;;;;5030313;28;1105;-66
2022/09/20 07:14:49;;;;;;;;;;;;;;;;;;5021380;28;866;-66
2022/09/20 07:17:14;;;;;;;;;;;;;;;;;;5020975;28;755;-66
2022/09/20 07:19:39;;;;;;;;;;;;;;;;;;5022176;28;1153;-64
2022/09/20 07:22:05;;;;;;;;;;;;;;;;;;5022105;28;1052;-64
2022/09/20 07:24:31;;;;;;;;;;;;;;;;;;5021263;28;779;-64
2022/09/20 07:26:57;;;;;;;;;;;;;;;;;;5021771;28;1952;-66
2022/09/20 07:29:23;;;;;;;;;;;;;;;;;;5021784;28;1144;-66
2022/09/20 07:31:49;;;;;;;;;;;;;;;;;;5021774;28;779;-66
2022/09/20 07:34:16;;;;;;;;;;;;;;;;;;5021879;28;906;-66
2022/09/20 07:36:41;;;;;;;;;;;;;;;;;;5021242;28;830;-66
2022/09/20 07:39:07;;;;;;;;;;;;;;;;;;5021843;28;1227;-66
2022/09/20 07:41:32;;;;;;;;;;;;;;;;;;5021414;28;886;-66
2022/09/20 07:44:19;;;;;;;;;;;;;;;;;;5021883;28;779;-66
2022/09/20 07:46:44;;;;;;;;;;;;;;;;;;5020699;28;1958;-64
2022/09/20 07:49:09;;;;;;;;;;;;;;;;;;5021694;28;1160;-63
2022/09/20 07:51:34;;;;;;;;;;;;;;;;;;5021381;28;981;-64
2022/09/20 07:53:59;;;;;;;;;;;;;;;;;;5021823;28;787;-66
2022/09/20 07:56:25;;;;;;;;;;;;;;;;;;5020827;28;909;-66
2022/09/20 07:58:50;;;;;;;;;;;;;;;;;;5021552;28;1164;-66
2022/09/20 08:01:15;;;;;;;;;;;;;;;;;;5040211;28;927;-66
2022/09/20 08:03:41;;;;;;;;;;;;;;;;;;5041007;28;977;-66
2022/09/20 08:06:08;;;;;;;;;;;;;;;;;;5040417;28;1897;-66
2022/09/20 08:08:35;;;;;;;;;;;;;;;;;;5041038;28;894;-66
2022/09/20 08:11:11;;;;;;;;;;;;;;;;;;5041134;28;1164;-66
2022/09/20 08:13:37;;;;;;;;;;;;;;;;;;5040318;28;929;-66
2022/09/20 08:16:03;;;;;;;;;;;;;;;;;;5040463;28;846;-66
2022/09/20 08:18:28;;;;;;;;;;;;;;;;;;5040878;28;839;-66
2022/09/20 08:20:54;;;;;;;;;;;;;;;;;;5040976;28;1168;-66
2022/09/20 08:23:19;;;;;;;;;;;;;;;;;;5040977;28;796;-66
2022/09/20 08:25:46;;;;;;;;;;;;;;;;;;5041000;28;732;-66
2022/09/20 08:28:11;;;;;;;;;;;;;;;;;;5040467;28;1890;-66
2022/09/20 08:30:36;;;;;;;;;;;;;;;;;;5040908;28;1251;-65
2022/09/20 08:33:02;;;;;;;;;;;;;;;;;;5040519;28;883;-65
2022/09/20 08:35:28;;;;;;;;;;;;;;;;;;5040321;28;857;-65
2022/09/20 08:37:53;;;;;;;;;;;;;;;;;;5040879;28;929;-66
2022/09/20 08:40:22;;;;;;;;;;;;;;;;;;5040719;28;1258;-66
2022/09/20 08:42:48;;;;;;;;;;;;;;;;;;5040888;28;842;-65
2022/09/20 08:45:21;;;;;;;;;;;;;;;;;;5040053;28;775;-66
2022/09/20 08:47:57;;;;;;;;;;;;;;;;;;5022779;28;1894;-66
2022/09/20 08:50:22;;;;;;;;;;;;;;;;;;5040570;28;1144;-66
2022/09/20 08:52:49;;;;;;;;;;;;;;;;;;5040535;28;795;-66
2022/09/20 08:55:16;;;;;;;;;;;;;;;;;;5039993;28;779;-66
2022/09/20 08:57:42;;;;;;;;;;;;;;;;;;5040578;28;768;-66
2022/09/20 09:00:31;;;;;;;;;;;;;;;;;;5040155;28;1184;-66
2022/09/20 09:02:57;;;;;;;;;;;;;;;;;;5034835;28;1265;-66
2022/09/20 09:05:33;;;;;;;;;;;;;;;;;;5039801;28;858;-66
2022/09/20 09:08:00;;;;;;;;;;;;;;;;;;5040440;28;1905;-66
2022/09/20 09:10:37;;;;;;;;;;;;;;;;;;5040245;28;1141;-66
2022/09/20 09:13:03;;;;;;;;;;;;;;;;;;5040488;28;961;-66
2022/09/20 09:15:30;;;;;;;;;;;;;;;;;;5039578;28;854;-66
2022/09/20 09:17:55;;;;;;;;;;;;;;;;;;5040362;28;896;-66
2022/09/20 09:20:22;;;;;;;;;;;;;;;;;;5039970;28;1174;-66
2022/09/20 09:22:48;;;;;;;;;;;;;;;;;;5040298;28;925;-66
2022/09/20 09:25:13;;;;;;;;;;;;;;;;;;5039567;28;853;-66
2022/09/20 09:27:48;;;;;;;;;;;;;;;;;;5040165;28;1949;-66
2022/09/20 09:30:22;;;;;;;;;;;;;;;;;;5040153;28;1184;-66
2022/09/20 09:32:48;;;;;;;;;;;;;;;;;;5040370;28;803;-66
2022/09/20 09:35:24;;;;;;;;;;;;;;;;;;5039410;28;906;-67
2022/09/20 09:37:54;;;;;;;;;;;;;;;;;;5040038;28;870;-66
2022/09/20 09:40:19;;;;;;;;;;;;;;;;;;5041143;28;1200;-66
2022/09/20 09:42:49;;;;;;;;;;;;;;;;;;5043619;28;768;-67
2022/09/20 09:45:37;;;;;;;;;;;;;;;;;;5042913;28;913;-67
2022/09/20 09:48:17;;;;;;;;;;;;;;;;;;5030114;28;1943;-66
2022/09/20 09:50:42;;;;;;;;;;;;;;;;;;5029283;28;1276;-66
2022/09/20 09:53:15;;;;;;;;;;;;;;;;;;5043399;28;827;-66
2022/09/20 09:55:40;;;;;;;;;;;;;;;;;;5042489;28;787;-66
2022/09/20 09:58:11;;;;;;;;;;;;;;;;;;5025322;28;855;-66
2022/09/20 10:00:41;;;;;;;;;;;;;;;;;;5042872;28;1256;-66
2022/09/20 10:03:19;;;;;;;;;;;;;;;;;;5043270;28;827;-66
2022/09/20 10:05:56;;;;;;;;;;;;;;;;;;5042548;28;970;-66
2022/09/20 10:08:40;;;;;;;;;;;;;;;;;;5043383;28;1945;-66
2022/09/20 10:11:09;;;;;;;;;;;;;;;;;;5043135;28;1256;-67
2022/09/20 10:13:40;;;;;;;;;;;;;;;;;;5043210;28;854;-66
2022/09/20 10:16:08;;;;;;;;;;;;;;;;;;5024658;28;954;-66
2022/09/20 10:18:41;;;;;;;;;;;;;;;;;;5043314;28;930;-66
2022/09/20 10:21:15;;;;;;;;;;;;;;;;;;5025339;28;1414;-66
2022/09/20 10:23:56;;;;;;;;;;;;;;;;;;5043031;28;803;-66
2022/09/20 10:26:26;;;;;;;;;;;;;;;;;;5042433;28;1894;-66
2022/09/20 10:29:03;;;;;;;;;;;;;;;;;;5043136;28;1212;-66
2022/09/20 10:31:46;;;;;;;;;;;;;;;;;;5042954;28;843;-66
2022/09/20 10:34:14;;;;;;;;;;;;;;;;;;5042985;28;957;-66
2022/09/20 10:36:51;;;;;;;;;;;;;;;;;;5042191;28;854;-66
2022/09/20 10:39:30;;;;;;;;;;;;;;;;;;5042894;28;1240;-66
2022/09/20 10:45:11;;;;;;;;;;;;;;;;;;5042354;28;598;-66
2022/09/20 10:47:55;;;;;;;;;;;;;;;;;;5042716;28;1898;-66
2022/09/20 10:50:30;;;;;;;;;;;;;;;;;;5042809;28;1219;-66
2022/09/20 10:53:01;;;;;;;;;;;;;;;;;;5042932;28;814;-66
2022/09/20 10:55:36;;;;;;;;;;;;;;;;;;5042340;28;865;-66
2022/09/20 10:58:19;;;;;;;;;;;;;;;;;;5042816;28;778;-66
2022/09/20 11:00:59;;;;;;;;;;;;;;;;;;5042664;28;1334;-66
2022/09/20 11:03:33;;;;;;;;;;;;;;;;;;5042560;28;897;-66
2022/09/20 11:06:14;;;;;;;;;;;;;;;;;;5041837;28;803;-66
2022/09/20 11:08:39;;;;;;;;;;;;;;;;;;5042586;28;897;-66
2022/09/20 11:11:40;;;;;;;;;;;;;;;;;;5024461;28;1172;-66
2022/09/20 11:14:09;;;;;;;;;;;;;;;;;;5000404;28;1247;-66
2022/09/20 11:16:46;;;;;;;;;;;;;;;;;;5033785;28;934;-66
2022/09/20 11:19:17;;;;;;;;;;;;;;;;;;5042377;28;1279;-66
2022/09/20 11:21:48;;;;;;;;;;;;;;;;;;5042187;28;922;-66
2022/09/20 11:24:31;;;;;;;;;;;;;;;;;;5042107;28;779;-66
2022/09/20 11:26:59;;;;;;;;;;;;;;;;;;5041952;28;1955;-66
2022/09/20 11:29:27;;;;;;;;;;;;;;;;;;5042136;28;1165;-66
2022/09/20 11:31:54;;;;;;;;;;;;;;;;;;5042074;28;819;-66
2022/09/20 11:34:30;;;;;;;;;;;;;;;;;;5042086;28;874;-66
2022/09/20 11:37:01;;;;;;;;;;;;;;;;;;5040805;28;811;-66
2022/09/20 11:39:29;;;;;;;;;;;;;;;;;;5042015;28;1267;-66
2022/09/20 11:41:56;;;;;;;;;;;;;;;;;;5041900;28;802;-66
2022/09/20 11:44:22;;;;;;;;;;;;;;;;;;5041710;28;783;-66
2022/09/20 11:46:54;;;;;;;;;;;;;;;;;;5041193;28;1889;-67
2022/09/20 11:49:27;;;;;;;;;;;;;;;;;;5042173;28;1299;-66
2022/09/20 11:52:04;;;;;;;;;;;;;;;;;;5041647;28;942;-66
2022/09/20 11:54:40;;;;;;;;;;;;;;;;;;5041117;28;1037;-66
2022/09/20 11:57:10;;;;;;;;;;;;;;;;;;5041708;28;913;-66
2022/09/20 11:59:38;;;;;;;;;;;;;;;;;;5058449;22;3742;-68
2022/09/20 12:02:11;;;;;;;;;;;;;;;;;;5081542;28;926;-68
2022/09/20 12:04:37;;;;;;;;;;;;;;;;;;5080618;28;1279;-69
2022/09/20 12:07:04;;;;;;;;;;;;;;;;;;5081678;28;1905;-69
2022/09/20 12:09:32;;;;;;;;;;;;;;;;;;5081608;28;1183;-68
2022/09/20 12:11:58;;;;;;;;;;;;;;;;;;5081510;28;874;-70
2022/09/20 12:14:28;;;;;;;;;;;;;;;;;;5080897;28;918;-70
2022/09/20 12:16:53;;;;;;;;;;;;;;;;;;5081580;28;909;-70
2022/09/20 12:19:31;;;;;;;;;;;;;;;;;;5063451;28;1638;-70
2022/09/20 12:21:59;;;;;;;;;;;;;;;;;;5081462;28;920;-69
2022/09/20 12:24:28;;;;;;;;;;;;;;;;;;5080802;28;997;-69
2022/09/20 12:26:55;;;;;;;;;;;;;;;;;;5081568;28;1894;-70
2022/09/20 12:29:23;;;;;;;;;;;;;;;;;;5081105;28;1983;-70
2022/09/20 12:31:49;;;;;;;;;;;;;;;;;;5081650;28;902;-70
2022/09/20 12:34:14;;;;;;;;;;;;;;;;;;5081086;28;893;-70
2022/09/20 12:36:41;;;;;;;;;;;;;;;;;;5080656;28;878;-70
2022/09/20 12:39:09;;;;;;;;;;;;;;;;;;5081071;28;874;-69
2022/09/20 12:41:47;;;;;;;;;;;;;;;;;;5081309;28;1262;-70
2022/09/20 12:44:27;;;;;;;;;;;;;;;;;;5080996;28;960;-70
2022/09/20 12:46:57;;;;;;;;;;;;;;;;;;5080910;28;1977;-70
2022/09/20 12:55:25;;;;;;;;;;;;;;;;;;5080435;28;636;-70
2022/09/20 12:57:59;;;;;;;;;;;;;;;;;;5081012;28;841;-70
2022/09/20 13:00:29;;;;;;;;;;;;;;;;;;5080840;28;1413;-70
2022/09/20 13:02:56;;;;;;;;;;;;;;;;;;5080922;28;897;-70
2022/09/20 13:05:32;;;;;;;;;;;;;;;;;;5080014;28;878;-70
2022/09/20 13:08:08;;;;;;;;;;;;;;;;;;5080894;28;1972;-70
2022/09/20 13:10:36;;;;;;;;;;;;;;;;;;5080923;28;1183;-70
2022/09/20 13:13:11;;;;;;;;;;;;;;;;;;5063040;28;843;-70
2022/09/20 13:15:37;;;;;;;;;;;;;;;;;;5081580;28;881;-70
2022/09/20 13:18:04;;;;;;;;;;;;;;;;;;5084351;28;865;-70
2022/09/20 13:20:33;;;;;;;;;;;;;;;;;;5084180;28;1242;-70
2022/09/20 13:22:59;;;;;;;;;;;;;;;;;;5084175;28;803;-70
2022/09/20 13:25:24;;;;;;;;;;;;;;;;;;5083284;28;855;-69
2022/09/20 13:28:07;;;;;;;;;;;;;;;;;;5084182;28;1910;-69
2022/09/20 13:30:32;;;;;;;;;;;;;;;;;;5084163;28;1260;-69
2022/09/20 13:33:14;;;;;;;;;;;;;;;;;;5084018;28;1029;-69
2022/09/20 13:35:40;;;;;;;;;;;;;;;;;;5083057;28;763;-70
2022/09/20 13:38:07;;;;;;;;;;;;;;;;;;5083987;28;888;-69
2022/09/20 13:40:33;;;;;;;;;;;;;;;;;;5083868;28;1248;-70
2022/09/20 13:43:00;;;;;;;;;;;;;;;;;;5084013;28;826;-70
2022/09/20 13:45:25;;;;;;;;;;;;;;;;;;5083241;28;1004;-69
2022/09/20 13:47:53;;;;;;;;;;;;;;;;;;5084032;28;1959;-69
2022/09/20 13:50:23;;;;;;;;;;;;;;;;;;5083626;28;1230;-69
2022/09/20 13:52:50;;;;;;;;;;;;;;;;;;5083709;28;944;-69
2022/09/20 13:55:28;;;;;;;;;;;;;;;;;;5082998;28;869;-69
2022/09/20 13:57:55;;;;;;;;;;;;;;;;;;5083682;28;878;-70
2022/09/20 14:00:21;;;;;;;;;;;;;;;;;;5083392;28;1273;-69
2022/09/20 14:02:47;;;;;;;;;;;;;;;;;;5083529;28;1042;-70
2022/09/20 14:05:17;;;;;;;;;;;;;;;;;;5082784;28;1064;-69
2022/09/20 14:07:43;;;;;;;;;;;;;;;;;;5083465;28;1898;-69
2022/09/20 14:10:27;;;;;;;;;;;;;;;;;;5083215;28;1236;-69
2022/09/20 14:12:53;;;;;;;;;;;;;;;;;;5083244;28;846;-69
2022/09/20 14:15:18;;;;;;;;;;;;;;;;;;5082633;28;806;-69
2022/09/20 14:17:44;;;;;;;;;;;;;;;;;;5083428;28;885;-69
2022/09/20 14:20:12;;;;;;;;;;;;;;;;;;5083275;28;1179;-69
2022/09/20 14:22:38;;;;;;;;;;;;;;;;;;5083343;28;822;-69
2022/09/20 14:25:17;;;;;;;;;;;;;;;;;;5082237;28;862;-69
2022/09/20 14:27:43;;;;;;;;;;;;;;;;;;5082695;28;1925;-69
2022/09/20 14:30:27;;;;;;;;;;;;;;;;;;5083158;28;1149;-69
2022/09/20 14:32:53;;;;;;;;;;;;;;;;;;5083160;28;771;-69
2022/09/20 14:35:20;;;;;;;;;;;;;;;;;;5082452;28;932;-70
2022/09/20 14:37:49;;;;;;;;;;;;;;;;;;5082810;28;837;-69
2022/09/20 14:40:17;;;;;;;;;;;;;;;;;;5083058;28;1168;-70
2022/09/20 14:42:44;;;;;;;;;;;;;;;;;;5083172;28;857;-69
2022/09/20 14:45:20;;;;;;;;;;;;;;;;;;5082251;28;893;-70
2022/09/20 14:48:14;;;;;;;;;;;;;;;;;;5082655;28;1890;-69
2022/09/20 14:50:42;;;;;;;;;;;;;;;;;;5069327;28;1359;-69
2022/09/20 14:53:10;;;;;;;;;;;;;;;;;;5082532;28;858;-70
2022/09/20 14:55:36;;;;;;;;;;;;;;;;;;5076818;28;1053;-70
2022/09/20 14:58:05;;;;;;;;;;;;;;;;;;5062575;28;814;-69
2022/09/20 15:00:45;;;;;;;;;;;;;;;;;;5062506;28;1171;-70
2022/09/20 15:03:12;;;;;;;;;;;;;;;;;;5061376;28;815;-69
2022/09/20 15:05:37;;;;;;;;;;;;;;;;;;5061721;28;968;-69
2022/09/20 15:08:02;;;;;;;;;;;;;;;;;;5062229;28;1910;-69
2022/09/20 15:10:29;;;;;;;;;;;;;;;;;;5062416;28;1145;-70
2022/09/20 15:12:54;;;;;;;;;;;;;;;;;;5062396;28;834;-70
2022/09/20 15:15:19;;;;;;;;;;;;;;;;;;5061601;28;898;-69
2022/09/20 15:17:45;;;;;;;;;;;;;;;;;;5062568;28;779;-69
2022/09/20 15:20:14;;;;;;;;;;;;;;;;;;5062479;28;1259;-68
2022/09/20 15:22:40;;;;;;;;;;;;;;;;;;5044137;28;882;-71
2022/09/20 15:25:05;;;;;;;;;;;;;;;;;;5061738;28;973;-70
2022/09/20 15:27:31;;;;;;;;;;;;;;;;;;5062092;28;1902;-70
2022/09/20 15:29:56;;;;;;;;;;;;;;;;;;5060767;28;1351;-70
2022/09/20 15:32:21;;;;;;;;;;;;;;;;;;5062045;28;886;-70
2022/09/20 15:34:46;;;;;;;;;;;;;;;;;;5061550;28;1044;-70
2022/09/20 15:37:11;;;;;;;;;;;;;;;;;;5061407;28;815;-70
2022/09/20 15:39:36;;;;;;;;;;;;;;;;;;5061514;28;1243;-70
2022/09/20 15:42:02;;;;;;;;;;;;;;;;;;5061954;28;783;-70
2022/09/20 15:44:27;;;;;;;;;;;;;;;;;;5061470;28;994;-68
2022/09/20 15:46:54;;;;;;;;;;;;;;;;;;5061841;28;1902;-68
2022/09/20 15:49:20;;;;;;;;;;;;;;;;;;5061808;28;1183;-69
2022/09/20 15:51:47;;;;;;;;;;;;;;;;;;5062063;28;857;-69
2022/09/20 15:54:12;;;;;;;;;;;;;;;;;;5061756;28;843;-69
2022/09/20 15:56:40;;;;;;;;;;;;;;;;;;5061006;28;775;-69
2022/09/20 15:59:07;;;;;;;;;;;;;;;;;;5061526;28;874;-69
2022/09/20 16:01:38;;;;;;;;;;;;;;;;;;5061635;28;1176;-69
2022/09/20 16:04:07;;;;;;;;;;;;;;;;;;5061995;28;1033;-69
2022/09/20 16:06:33;;;;;;;;;;;;;;;;;;5060787;28;1973;-69
2022/09/20 16:08:58;;;;;;;;;;;;;;;;;;5061645;28;791;-69
2022/09/20 16:11:23;;;;;;;;;;;;;;;;;;5061509;28;1176;-69
2022/09/20 16:13:55;;;;;;;;;;;;;;;;;;5061432;28;802;-69
2022/09/20 16:16:21;;;;;;;;;;;;;;;;;;5067151;28;842;-70
2022/09/20 16:21:30;;;;;;;;;;;;;;;;;;5061711;28;1224;-70
2022/09/20 16:23:56;;;;;;;;;;;;;;;;;;5061194;28;882;-70
2022/09/20 16:26:23;;;;;;;;;;;;;;;;;;5060573;28;1961;-68
2022/09/20 16:28:48;;;;;;;;;;;;;;;;;;5061315;28;886;-70
2022/09/20 16:31:32;;;;;;;;;;;;;;;;;;5061270;28;1172;-71
2022/09/20 16:33:58;;;;;;;;;;;;;;;;;;5061104;28;817;-70
2022/09/20 16:36:23;;;;;;;;;;;;;;;;;;5060532;28;806;-68
2022/09/20 16:38:49;;;;;;;;;;;;;;;;;;5061022;28;799;-68
2022/09/20 16:41:14;;;;;;;;;;;;;;;;;;5061343;28;1243;-70
2022/09/20 16:43:40;;;;;;;;;;;;;;;;;;5060921;28;877;-71
2022/09/20 16:46:05;;;;;;;;;;;;;;;;;;5060371;28;830;-69
2022/09/20 16:48:31;;;;;;;;;;;;;;;;;;5060926;28;1881;-69
2022/09/20 16:50:56;;;;;;;;;;;;;;;;;;5067873;28;1266;-69
2022/09/20 16:53:21;;;;;;;;;;;;;;;;;;5067604;28;837;-69
2022/09/20 16:55:47;;;;;;;;;;;;;;;;;;5066806;28;847;-69
2022/09/20 16:58:12;;;;;;;;;;;;;;;;;;5067651;28;873;-69
2022/09/20 17:00:38;;;;;;;;;;;;;;;;;;5067245;28;1251;-69
2022/09/20 17:03:03;;;;;;;;;;;;;;;;;;5067481;28;905;-69
2022/09/20 17:05:28;;;;;;;;;;;;;;;;;;5066751;28;1076;-69
2022/09/20 17:07:54;;;;;;;;;;;;;;;;;;5067250;28;1893;-69
2022/09/20 17:10:19;;;;;;;;;;;;;;;;;;5067284;28;1275;-69
2022/09/20 17:12:46;;;;;;;;;;;;;;;;;;5067571;28;782;-69
2022/09/20 17:15:12;;;;;;;;;;;;;;;;;;5066725;28;882;-70
2022/09/20 17:17:38;;;;;;;;;;;;;;;;;;5067479;28;870;-70
2022/09/20 17:20:04;;;;;;;;;;;;;;;;;;5067038;28;1184;-70
2022/09/20 17:22:30;;;;;;;;;;;;;;;;;;5067257;28;807;-69
2022/09/20 17:24:55;;;;;;;;;;;;;;;;;;5066485;28;867;-69
2022/09/20 17:27:20;;;;;;;;;;;;;;;;;;5067002;28;1945;-70
2022/09/20 17:29:46;;;;;;;;;;;;;;;;;;5067078;28;1180;-70
2022/09/20 17:32:11;;;;;;;;;;;;;;;;;;5067244;28;937;-70
2022/09/20 17:34:36;;;;;;;;;;;;;;;;;;5066416;28;997;-70
2022/09/20 17:37:02;;;;;;;;;;;;;;;;;;5066995;28;953;-69
2022/09/20 17:39:27;;;;;;;;;;;;;;;;;;5066865;28;1282;-69
2022/09/20 17:41:52;;;;;;;;;;;;;;;;;;5067118;28;890;-70
2022/09/20 17:44:18;;;;;;;;;;;;;;;;;;5067054;28;847;-69
2022/09/20 17:46:44;;;;;;;;;;;;;;;;;;5066307;28;1886;-70
2022/09/20 17:49:13;;;;;;;;;;;;;;;;;;5049030;28;1281;-69
2022/09/20 17:51:39;;;;;;;;;;;;;;;;;;5066752;28;1144;-69
2022/09/20 17:54:04;;;;;;;;;;;;;;;;;;5067177;28;858;-69
2022/09/20 17:56:30;;;;;;;;;;;;;;;;;;5066150;28;938;-69
2022/09/20 17:58:59;;;;;;;;;;;;;;;;;;5066974;28;843;-69
2022/09/20 18:01:26;;;;;;;;;;;;;;;;;;5063889;28;1274;-68